Terminal Aerodrome Forecast
Issued by NWS Cleveland, OH

Home | Current Version | Previous Version | Graphics & Text | Print | Product List | Glossary Off
Versions: 1 2 3 4 5 6 7 8 9 10 11 12 13 14 15

000
FTUS41 KCLE 301736
TAFMFD
TAF
KMFD 301736Z 3018/3118 23007KT P6SM BKN050
     FM310000 21004KT P6SM SKC
     FM310900 21004KT 4SM BR SKC
     FM311400 23005KT P6SM SCT025
     FM311700 23007KT P6SM BKN050=

USA.gov is the U.S. government's official web portal to all federal, state and local government web resources and services.